Time;durP1;ratioP1;P1;durP2;ratioP2;P2;SDS_P1;SDS_P2;PMS_P1;PMS_P2;Temp;Humidity;BMP_temperature;BMP_pressure;BME280_temperature;BME280_humidity;BME280_pressure;Samples;Min_cycle;Max_cycle;Signal;HPM_P1;HPM_P2
2023/07/12 00:01:11;;;;;;;26.42;13.50;;;;;;;22.00;76.21;95137.63;5053304;28;20551;-78
2023/07/12 00:03:37;;;;;;;24.02;12.77;;;;;;;21.80;76.42;95111.69;5053395;28;20178;-78
2023/07/12 00:06:02;;;;;;;22.05;12.52;;;;;;;21.91;76.22;95130.41;5053275;28;20209;-78
2023/07/12 00:08:30;;;;;;;26.75;12.63;;;;;;;21.82;76.79;95124.81;5053385;28;20175;-78
2023/07/12 00:10:57;;;;;;;22.25;12.07;;;;;;;21.74;77.08;95115.47;5052105;28;20174;-78
2023/07/12 00:13:24;;;;;;;26.75;12.55;;;;;;;21.84;77.21;95133.38;5053258;28;20187;-78
2023/07/12 00:15:51;;;;;;;21.08;11.45;;;;;;;21.80;77.67;95125.06;5053108;28;20171;-78
2023/07/12 00:18:19;;;;;;;28.95;12.35;;;;;;;21.77;77.32;95122.97;5053171;28;20175;-78
2023/07/12 00:20:46;;;;;;;21.85;12.10;;;;;;;21.71;77.57;95112.50;5053117;28;20673;-78
2023/07/12 00:23:14;;;;;;;25.75;11.55;;;;;;;21.71;78.04;95121.34;5052899;28;20291;-78
2023/07/12 00:25:40;;;;;;;22.30;11.07;;;;;;;21.68;77.74;95121.94;5052920;28;20293;-78
2023/07/12 00:28:26;;;;;;;18.92;10.20;;;;;;;21.64;78.04;95122.72;5051701;28;20218;-78
2023/07/12 00:30:54;;;;;;;20.27;9.15;;;;;;;21.61;77.80;95112.56;5052583;28;20657;-78
2023/07/12 00:33:20;;;;;;;18.05;9.95;;;;;;;21.39;78.11;95075.38;5052738;28;20185;-78
2023/07/12 00:35:46;;;;;;;24.38;10.60;;;;;;;21.59;78.01;95118.19;5052831;28;20167;-78
2023/07/12 00:38:23;;;;;;;22.98;9.95;;;;;;;21.55;78.02;95110.97;5053128;28;20186;-78
2023/07/12 00:41:16;;;;;;;27.67;9.85;;;;;;;21.58;77.47;95110.44;5052443;28;21014;-78
2023/07/12 00:43:53;;;;;;;19.90;9.73;;;;;;;21.51;77.64;95109.94;5052758;28;20191;-79
2023/07/12 00:46:29;;;;;;;14.82;8.98;;;;;;;21.50;78.38;95100.28;5051254;28;20202;-79
2023/07/12 00:48:54;;;;;;;14.52;8.52;;;;;;;21.34;77.95;95086.13;5052011;28;20175;-79
2023/07/12 00:51:25;;;;;;;15.73;7.80;;;;;;;21.48;78.06;95113.94;5051392;28;20197;-79
2023/07/12 00:53:50;;;;;;;15.87;10.40;;;;;;;21.49;78.77;95118.22;5052080;28;20407;-79
2023/07/12 00:56:15;;;;;;;16.90;11.23;;;;;;;21.41;78.27;95108.06;5052456;28;20182;-79
2023/07/12 00:58:44;;;;;;;39.13;22.20;;;;;;;21.30;78.79;95091.22;5052559;28;20224;-79
2023/07/12 01:01:11;;;;;;;22.75;14.48;;;;;;;21.24;78.39;95086.97;5052220;28;20666;-79
2023/07/12 01:03:38;;;;;;;20.48;9.35;;;;;;;21.37;78.20;95115.03;5033158;28;20706;-79
2023/07/12 01:06:08;;;;;;;15.48;10.60;;;;;;;21.25;78.86;95091.25;5034094;28;20189;-78
2023/07/12 01:08:34;;;;;;;23.15;12.98;;;;;;;21.13;79.11;95077.31;5051448;28;20175;-79
2023/07/12 01:11:02;;;;;;;19.35;11.70;;;;;;;21.32;79.17;95105.16;5051911;28;20756;-79
2023/07/12 01:13:30;;;;;;;16.90;10.65;;;;;;;21.33;79.62;95104.06;5049103;28;20171;-79
2023/07/12 01:15:58;;;;;;;16.30;10.20;;;;;;;21.31;79.44;95098.19;5050178;28;20178;-79
2023/07/12 01:18:24;;;;;;;12.30;8.75;;;;;;;21.17;79.24;95073.06;5050281;28;20171;-79
2023/07/12 01:21:08;;;;;;;16.25;10.15;;;;;;;21.27;79.14;95089.09;5049871;28;20170;-79
2023/07/12 01:23:34;;;;;;;12.23;8.45;;;;;;;21.05;79.21;95061.78;5049386;28;20681;-79
2023/07/12 01:26:33;;;;;;;13.23;8.85;;;;;;;21.24;79.66;95089.63;5052824;28;20190;-79
2023/07/12 01:29:00;;;;;;;17.17;8.48;;;;;;;21.30;78.95;95099.25;5034970;28;20183;-79
2023/07/12 01:31:27;;;;;;;12.43;8.18;;;;;;;21.24;79.63;95104.91;5051253;28;20167;-79
2023/07/12 01:33:53;;;;;;;10.88;7.30;;;;;;;21.24;79.39;95107.56;5051689;28;20203;-79
2023/07/12 01:36:19;;;;;;;12.18;7.50;;;;;;;21.21;79.33;95108.91;5051897;28;20271;-79
2023/07/12 01:38:44;;;;;;;15.32;7.97;;;;;;;21.20;79.96;95107.31;5051427;28;20210;-79
2023/07/12 01:41:10;;;;;;;11.82;8.20;;;;;;;21.17;80.10;95107.88;5051840;28;20208;-79
2023/07/12 01:43:35;;;;;;;9.65;7.35;;;;;;;21.08;80.25;95107.56;5051568;28;20608;-79
2023/07/12 01:46:02;;;;;;;11.68;7.85;;;;;;;21.07;80.39;95111.31;5051522;28;20254;-79
2023/07/12 01:48:27;;;;;;;11.25;6.97;;;;;;;20.96;80.26;95096.34;5050066;28;20557;-79
2023/07/12 01:50:53;;;;;;;13.38;7.70;;;;;;;20.84;80.19;95087.81;5051687;28;20266;-79
2023/07/12 01:53:18;;;;;;;10.85;8.25;;;;;;;20.98;80.49;95098.75;5051643;28;20175;-79
2023/07/12 01:55:44;;;;;;;12.80;7.53;;;;;;;21.02;80.27;95105.16;5051521;28;20167;-79
2023/07/12 01:58:10;;;;;;;10.00;7.70;;;;;;;21.05;80.30;95109.97;5051663;28;20175;-78
2023/07/12 02:00:35;;;;;;;15.15;8.32;;;;;;;20.84;80.21;95081.66;5051444;28;20209;-79
2023/07/12 02:03:01;;;;;;;13.85;7.78;;;;;;;20.97;79.70;95103.31;5051044;28;20274;-79
2023/07/12 02:05:27;;;;;;;14.95;7.80;;;;;;;21.01;80.10;95114.28;5048438;28;20565;-79
2023/07/12 02:07:56;;;;;;;15.57;8.65;;;;;;;20.96;80.29;95124.97;5051433;28;20175;-79
2023/07/12 02:10:23;;;;;;;14.18;7.85;;;;;;;20.95;80.20;95123.38;5051297;28;20568;-79
2023/07/12 02:12:49;;;;;;;15.60;8.15;;;;;;;20.83;80.36;95112.16;5051225;28;20179;-79
2023/07/12 02:15:15;;;;;;;12.80;7.82;;;;;;;20.86;80.57;95122.31;5051436;28;20599;-79
2023/07/12 02:17:41;;;;;;;12.52;9.25;;;;;;;20.93;80.63;95141.59;5050675;28;20418;-79
2023/07/12 02:20:08;;;;;;;12.10;8.02;;;;;;;20.92;80.18;95131.97;5051361;28;20175;-79
2023/07/12 02:22:35;;;;;;;12.60;7.80;;;;;;;20.92;80.37;95140.00;5051086;28;20188;-79
2023/07/12 02:25:01;;;;;;;13.07;7.60;;;;;;;20.93;80.74;95141.59;5051324;28;20244;-79
2023/07/12 02:27:27;;;;;;;12.88;8.30;;;;;;;20.89;80.26;95127.13;5033359;28;20174;-79
2023/07/12 02:29:53;;;;;;;14.20;8.52;;;;;;;20.85;79.99;95136.75;5050974;28;20174;-79
2023/07/12 02:32:20;;;;;;;15.00;8.90;;;;;;;20.52;80.15;95103.31;5051045;28;20719;-79
2023/07/12 02:34:46;;;;;;;13.45;8.60;;;;;;;20.60;81.06;95124.16;5051336;28;20171;-79
2023/07/12 02:37:12;;;;;;;14.63;9.05;;;;;;;20.57;81.45;95117.50;5033234;28;20536;-79
2023/07/12 02:39:37;;;;;;;13.07;7.95;;;;;;;20.61;81.43;95142.63;5050985;28;20221;-79
2023/07/12 02:42:03;;;;;;;12.77;7.35;;;;;;;20.59;81.53;95139.41;5049638;28;20171;-79
2023/07/12 02:44:28;;;;;;;11.35;8.23;;;;;;;20.57;81.50;95140.78;5050999;28;20178;-79
2023/07/12 02:46:54;;;;;;;12.18;8.18;;;;;;;20.61;81.45;95158.69;5050919;28;20285;-79
2023/07/12 02:49:19;;;;;;;11.95;8.32;;;;;;;20.51;81.74;95144.50;5051068;28;20559;-79
2023/07/12 02:51:44;;;;;;;14.13;8.27;;;;;;;20.47;81.65;95140.75;5051055;28;20265;-78
2023/07/12 02:54:10;;;;;;;12.68;8.35;;;;;;;20.58;81.60;95158.44;5051275;28;20171;-79
2023/07/12 02:56:35;;;;;;;13.68;8.43;;;;;;;20.56;82.19;95165.91;5051310;28;20182;-79
2023/07/12 02:59:01;;;;;;;19.88;9.93;;;;;;;20.49;82.33;95152.00;5050717;28;20250;-79
2023/07/12 03:01:26;;;;;;;14.90;9.25;;;;;;;20.45;82.09;95143.69;5051054;28;20220;-78
2023/07/12 03:03:53;;;;;;;15.70;8.18;;;;;;;20.64;82.10;95168.06;5051141;28;20814;-79
2023/07/12 03:06:19;;;;;;;11.05;7.68;;;;;;;20.68;81.75;95163.78;5050719;28;20238;-79
2023/07/12 03:08:44;;;;;;;19.00;9.27;;;;;;;20.53;81.22;95140.50;5050470;28;20198;-79
2023/07/12 03:11:11;;;;;;;13.00;8.57;;;;;;;20.65;81.15;95167.00;5050770;28;20658;-79
2023/07/12 03:13:37;;;;;;;14.68;8.15;;;;;;;20.60;81.17;95157.06;5050290;28;20190;-79
2023/07/12 03:16:04;;;;;;;14.27;8.32;;;;;;;20.59;81.61;95152.78;5053710;28;20178;-79
2023/07/12 03:18:30;;;;;;;17.02;9.10;;;;;;;20.68;81.62;95169.13;5054310;28;20178;-78
2023/07/12 03:21:04;;;;;;;15.65;7.90;;;;;;;20.70;81.08;95172.34;5036461;28;20171;-79
2023/07/12 03:23:31;;;;;;;13.73;7.85;;;;;;;20.68;81.18;95169.13;5053004;28;20254;-78
2023/07/12 03:25:57;;;;;;;11.48;8.15;;;;;;;20.70;80.99;95173.16;5055525;28;20277;-78
2023/07/12 03:28:23;;;;;;;16.83;7.97;;;;;;;20.70;80.99;95175.81;5037643;28;20182;-77
2023/07/12 03:31:00;;;;;;;14.60;8.10;;;;;;;20.71;81.24;95179.31;5037566;28;20203;-77
2023/07/12 03:33:26;;;;;;;14.38;8.00;;;;;;;20.65;81.33;95161.66;5052762;28;20170;-77
2023/07/12 03:35:52;;;;;;;15.57;7.85;;;;;;;20.63;81.47;95161.91;5053809;28;20167;-79
2023/07/12 03:38:17;;;;;;;14.38;7.68;;;;;;;20.63;81.60;95156.56;5053485;28;20179;-79
2023/07/12 03:40:47;;;;;;;14.23;7.60;;;;;;;20.85;81.59;95185.72;5035490;28;20277;-80
2023/07/12 03:43:12;;;;;;;14.95;7.82;;;;;;;20.84;81.76;95178.81;5053919;28;20556;-79
2023/07/12 03:45:39;;;;;;;14.23;8.68;;;;;;;21.01;81.96;95187.38;5035623;28;20199;-79
2023/07/12 03:48:04;;;;;;;14.15;8.52;;;;;;;20.98;80.45;95187.09;5053712;28;20201;-80
2023/07/12 03:50:30;;;;;;;24.83;15.10;;;;;;;21.19;80.38;95196.75;5053577;28;21299;-79
2023/07/12 03:52:55;;;;;;;22.30;15.18;;;;;;;21.18;79.93;95178.28;5053644;28;20515;-79
2023/07/12 03:55:20;;;;;;;29.42;16.85;;;;;;;21.41;79.65;95196.47;5053742;28;20251;-79
2023/07/12 03:57:46;;;;;;;34.40;16.48;;;;;;;21.57;79.05;95203.41;5035917;28;20221;-79
2023/07/12 04:00:15;;;;;;;29.50;17.92;;;;;;;21.73;79.00;95193.47;5054045;28;20616;-78
2023/07/12 04:02:41;;;;;;;14.13;8.55;;;;;;;21.81;77.58;95191.03;5055439;28;20171;-79
2023/07/12 04:05:06;;;;;;;17.98;9.65;;;;;;;22.05;76.91;95204.66;5072627;28;20198;-79
2023/07/12 04:07:32;;;;;;;19.38;9.13;;;;;;;22.09;76.41;95188.81;5067036;28;20193;-81
2023/07/12 04:09:57;;;;;;;19.77;10.07;;;;;;;22.15;76.67;95188.50;5069898;28;20179;-79
2023/07/12 04:12:23;;;;;;;16.88;11.23;;;;;;;22.35;77.43;95192.19;5057696;28;20179;-80
2023/07/12 04:14:49;;;;;;;16.65;9.15;;;;;;;22.57;76.94;95198.00;5053213;28;20171;-79
2023/07/12 04:17:15;;;;;;;14.43;9.80;;;;;;;22.70;75.21;95194.69;5035302;28;20175;-79
2023/07/12 04:19:41;;;;;;;19.27;9.63;;;;;;;22.71;74.98;95169.44;5053171;28;20163;-79
2023/07/12 04:22:07;;;;;;;22.23;14.55;;;;;;;23.04;73.43;95192.03;5053207;28;20541;-78
2023/07/12 04:24:32;;;;;;;20.50;10.23;;;;;;;23.19;73.76;95186.53;5053163;28;20615;-78
2023/07/12 04:26:59;;;;;;;16.65;8.27;;;;;;;23.35;73.11;95189.94;5052890;28;20638;-78
2023/07/12 04:29:26;;;;;;;13.70;8.48;;;;;;;23.52;71.94;95195.72;5052731;28;20179;-77
2023/07/12 04:31:52;;;;;;;21.05;9.80;;;;;;;23.60;72.06;95178.16;5052798;28;20236;-78
2023/07/12 04:34:17;;;;;;;14.77;7.07;;;;;;;23.77;72.69;95178.50;5054492;28;20327;-77
2023/07/12 04:36:43;;;;;;;14.18;8.10;;;;;;;23.95;70.42;95195.81;5051940;28;20640;-78
2023/07/12 04:39:08;;;;;;;13.70;8.18;;;;;;;24.03;70.53;95200.56;5053876;28;20268;-78
2023/07/12 04:41:34;;;;;;;23.60;14.88;;;;;;;24.21;71.59;95197.13;5050138;28;20265;-78
2023/07/12 04:44:01;;;;;;;17.40;10.65;;;;;;;24.34;69.25;95204.50;5052635;28;20187;-78
2023/07/12 04:46:26;;;;;;;20.30;11.88;;;;;;;24.42;68.72;95194.97;5051988;28;20586;-78
2023/07/12 04:48:52;;;;;;;15.85;9.10;;;;;;;24.62;68.51;95202.78;5051914;28;20171;-78
2023/07/12 04:51:17;;;;;;;15.15;9.27;;;;;;;24.82;68.07;95215.19;5033939;28;20675;-78
2023/07/12 04:53:47;;;;;;;16.65;9.63;;;;;;;24.91;68.10;95205.34;5040112;28;20171;-77
2023/07/12 04:56:15;;;;;;;13.90;8.32;;;;;;;25.06;65.91;95218.63;5036364;28;20157;-78
2023/07/12 04:58:42;;;;;;;15.80;9.85;;;;;;;25.21;66.19;95219.47;5042596;28;20211;-79
2023/07/12 05:01:09;;;;;;;26.35;9.13;;;;;;;25.23;66.12;95195.72;5052490;28;20163;-79
2023/07/12 05:03:35;;;;;;;15.82;8.27;;;;;;;25.49;65.80;95215.78;5052547;28;20182;-79
2023/07/12 05:06:01;;;;;;;17.02;9.02;;;;;;;25.63;65.36;95213.94;5052330;28;20191;-79
2023/07/12 05:08:26;;;;;;;12.80;8.23;;;;;;;25.81;65.15;95204.16;5052149;28;20178;-79
2023/07/12 05:10:51;;;;;;;13.63;8.63;;;;;;;25.98;64.75;95207.09;5052360;28;20593;-79
2023/07/12 05:13:17;;;;;;;17.38;9.88;;;;;;;25.98;63.41;95196.28;5052426;28;20186;-79
2023/07/12 05:15:50;;;;;;;16.90;9.82;;;;;;;26.19;63.11;95196.72;5034140;28;20205;-79
2023/07/12 05:18:15;;;;;;;17.90;9.55;;;;;;;26.36;62.09;95201.53;5052094;28;20178;-79
2023/07/12 05:20:41;;;;;;;10.98;7.55;;;;;;;26.48;62.90;95199.09;5052053;28;20160;-79
2023/07/12 05:23:06;;;;;;;16.35;7.85;;;;;;;26.49;63.53;95177.19;5051988;28;20278;-79
2023/07/12 05:25:31;;;;;;;11.88;8.27;;;;;;;26.82;62.68;95193.22;5050093;28;20257;-80
2023/07/12 05:27:57;;;;;;;18.35;10.00;;;;;;;27.06;61.73;95206.50;5052232;28;20603;-79
2023/07/12 05:30:22;;;;;;;14.25;8.07;;;;;;;27.05;59.39;95197.59;5052162;28;20197;-79
2023/07/12 05:32:48;;;;;;;15.73;10.32;;;;;;;27.19;60.84;95189.41;5052116;28;20169;-79
2023/07/12 05:35:13;;;;;;;11.95;8.02;;;;;;;27.38;58.07;95203.56;5051941;28;20236;-80
2023/07/12 05:37:39;;;;;;;14.38;8.10;;;;;;;27.24;58.53;95192.81;5051585;28;20174;-78
2023/07/12 05:40:05;;;;;;;10.20;7.50;;;;;;;27.52;59.73;95208.88;5051849;28;20217;-79
2023/07/12 05:42:31;;;;;;;11.57;8.25;;;;;;;27.63;56.85;95212.97;5052108;28;20242;-78
2023/07/12 05:44:56;;;;;;;13.25;9.07;;;;;;;27.64;57.18;95192.94;5034102;28;20170;-79
2023/07/12 05:47:22;;;;;;;14.35;8.85;;;;;;;27.77;59.15;95192.03;5051900;28;20563;-80
2023/07/12 05:49:47;;;;;;;12.82;8.30;;;;;;;27.89;58.06;95173.31;5051547;28;20320;-80
2023/07/12 05:52:13;;;;;;;13.48;9.07;;;;;;;28.19;57.60;95182.53;5051551;28;20178;-80
2023/07/12 05:54:38;;;;;;;14.93;9.05;;;;;;;28.38;57.84;95195.78;5051536;28;20171;-80
2023/07/12 05:57:04;;;;;;;14.45;8.68;;;;;;;28.50;56.71;95213.06;5052219;28;20228;-80
2023/07/12 05:59:29;;;;;;;17.30;9.80;;;;;;;28.71;55.78;95226.00;5051397;28;20245;-80
2023/07/12 06:01:55;;;;;;;15.63;9.18;;;;;;;28.73;55.26;95223.75;5051322;28;20242;-81
2023/07/12 06:04:20;;;;;;;17.63;9.43;;;;;;;28.77;55.85;95213.94;5051187;28;20178;-81
2023/07/12 06:06:46;;;;;;;14.13;9.60;;;;;;;29.10;54.30;95227.84;5033464;28;20203;-80
2023/07/12 06:09:12;;;;;;;17.30;10.63;;;;;;;29.20;54.55;95222.09;5051334;28;20186;-81
2023/07/12 06:11:38;;;;;;;14.07;8.93;;;;;;;28.97;52.69;95205.19;5051251;28;20665;-80
2023/07/12 06:14:04;;;;;;;15.25;8.93;;;;;;;29.15;53.35;95223.03;5051372;28;20163;-83
2023/07/12 06:16:29;;;;;;;14.68;9.07;;;;;;;29.31;52.29;95217.16;5051141;28;20237;-81
2023/07/12 06:18:55;;;;;;;13.40;8.32;;;;;;;29.31;52.23;95233.44;5050894;28;20258;-81
2023/07/12 06:21:20;;;;;;;14.23;8.93;;;;;;;29.36;54.37;95228.66;5051089;28;20170;-80
2023/07/12 06:23:46;;;;;;;17.00;8.57;;;;;;;29.50;56.83;95229.28;5051105;28;20610;-80
2023/07/12 06:26:11;;;;;;;12.38;9.00;;;;;;;29.56;51.59;95225.28;5051557;28;20278;-81
2023/07/12 06:28:37;;;;;;;14.48;8.13;;;;;;;29.73;53.45;95226.38;5051098;28;20162;-81
2023/07/12 06:31:02;;;;;;;19.35;9.05;;;;;;;29.73;50.57;95210.09;5050979;28;20175;-81
2023/07/12 06:33:27;;;;;;;13.68;8.75;;;;;;;29.86;50.00;95230.81;5050949;28;20274;-81
2023/07/12 06:35:53;;;;;;;16.45;8.15;;;;;;;29.89;51.73;95211.94;5051321;28;20635;-81
2023/07/12 06:38:18;;;;;;;13.95;7.55;;;;;;;30.09;50.64;95210.47;5032921;28;20265;-81
2023/07/12 06:40:45;;;;;;;13.52;8.80;;;;;;;30.23;50.64;95207.53;5050930;28;20223;-81
2023/07/12 06:43:12;;;;;;;19.42;8.23;;;;;;;30.37;50.81;95213.53;5016710;28;20179;-81
2023/07/12 06:45:37;;;;;;;13.38;7.45;;;;;;;30.21;51.63;95198.91;5050911;28;20269;-81
2023/07/12 06:48:03;;;;;;;19.65;7.38;;;;;;;30.59;50.26;95218.75;5032941;28;20183;-81
2023/07/12 06:50:28;;;;;;;14.68;7.43;;;;;;;30.78;49.42;95203.91;5053314;28;20190;-81
2023/07/12 06:52:54;;;;;;;11.63;7.43;;;;;;;31.03;48.54;95216.53;5054823;28;20227;-81
2023/07/12 06:55:19;;;;;;;11.88;7.90;;;;;;;30.68;46.53;95191.50;5054762;28;20182;-81
2023/07/12 06:57:45;;;;;;;14.02;7.10;;;;;;;30.81;48.75;95187.72;5054621;28;20175;-81
2023/07/12 07:00:12;;;;;;;18.05;7.75;;;;;;;31.00;47.05;95212.53;5054562;28;20660;-81
2023/07/12 07:02:37;;;;;;;15.45;7.00;;;;;;;30.98;47.85;95205.84;5054206;28;20670;-81
2023/07/12 07:05:04;;;;;;;15.13;7.55;;;;;;;30.83;47.91;95214.59;5054788;28;20210;-81
2023/07/12 07:07:29;;;;;;;9.80;6.07;;;;;;;30.96;49.25;95213.56;5054776;28;20253;-81
2023/07/12 07:09:55;;;;;;;15.63;7.35;;;;;;;31.15;48.15;95221.25;5054689;28;20238;-81
2023/07/12 07:12:20;;;;;;;12.77;7.50;;;;;;;31.39;47.84;95229.56;5054582;28;20250;-81
2023/07/12 07:14:46;;;;;;;12.05;7.18;;;;;;;31.47;49.14;95217.81;5036494;28;20179;-81
2023/07/12 07:17:11;;;;;;;12.20;7.63;;;;;;;31.83;47.34;95236.19;5054328;28;20163;-81
2023/07/12 07:19:37;;;;;;;14.00;7.40;;;;;;;32.02;47.93;95235.69;5054841;28;20218;-81
2023/07/12 07:22:03;;;;;;;12.75;7.20;;;;;;;32.05;45.38;95219.47;5054672;28;20259;-81
2023/07/12 07:24:29;;;;;;;13.48;6.80;;;;;;;31.98;47.73;95202.09;5054759;28;20212;-81
2023/07/12 07:26:54;;;;;;;16.45;6.93;;;;;;;32.21;47.20;95216.91;5054943;28;20207;-81
2023/07/12 07:29:20;;;;;;;18.40;7.95;;;;;;;32.43;46.40;95232.84;5036370;28;20171;-81
2023/07/12 07:31:45;;;;;;;17.42;7.28;;;;;;;32.60;47.13;95231.81;5055246;28;20173;-81
2023/07/12 07:34:11;;;;;;;13.98;7.10;;;;;;;32.67;48.17;95228.50;5054628;28;20179;-81
2023/07/12 07:36:36;;;;;;;15.63;7.75;;;;;;;32.83;49.66;95215.78;5054497;28;20178;-82
2023/07/12 07:39:02;;;;;;;13.50;7.03;;;;;;;32.95;47.58;95213.03;5051374;28;20230;-82
2023/07/12 07:41:27;;;;;;;10.63;6.70;;;;;;;32.96;45.12;95217.34;5055125;28;20553;-83
2023/07/12 07:43:53;;;;;;;13.88;7.70;;;;;;;32.96;47.36;95204.50;5036205;28;20559;-82
2023/07/12 07:46:18;;;;;;;13.93;7.55;;;;;;;33.08;44.04;95221.97;5034651;28;20252;-82
2023/07/12 07:48:44;;;;;;;15.63;7.68;;;;;;;32.95;46.50;95199.41;5053497;28;20271;-84
2023/07/12 07:51:10;;;;;;;13.77;7.35;;;;;;;33.26;47.30;95229.59;5052326;28;20171;-85
2023/07/12 07:53:36;;;;;;;13.98;7.47;;;;;;;33.39;49.01;95226.78;5057254;28;20180;-85
2023/07/12 07:56:02;;;;;;;15.63;7.97;;;;;;;33.27;43.95;95230.38;5036609;28;20183;-86
2023/07/12 07:58:27;;;;;;;14.80;8.43;;;;;;;32.79;44.57;95203.94;5054365;28;20953;-82
2023/07/12 08:00:53;;;;;;;11.40;7.40;;;;;;;32.85;46.01;95217.03;5053703;28;20186;-86
2023/07/12 08:03:18;;;;;;;12.35;6.55;;;;;;;32.66;46.87;95203.16;5035469;28;20172;-81
2023/07/12 08:05:45;;;;;;;10.45;7.10;;;;;;;32.84;45.34;95218.16;5053361;28;20704;-82
2023/07/12 08:08:11;;;;;;;17.42;7.35;;;;;;;32.83;45.56;95199.41;5053732;28;20171;-82
2023/07/12 08:10:36;;;;;;;13.85;8.55;;;;;;;33.06;45.04;95218.78;5034943;28;20182;-82
2023/07/12 08:13:03;;;;;;;17.13;7.63;;;;;;;33.10;45.33;95230.63;5053091;28;20286;-81
2023/07/12 08:15:28;;;;;;;14.15;7.30;;;;;;;33.25;45.39;95224.47;5053113;28;20562;-82
2023/07/12 08:17:54;;;;;;;10.20;6.88;;;;;;;33.41;47.40;95213.59;5053506;28;20175;-82
2023/07/12 08:20:21;;;;;;;14.30;7.30;;;;;;;33.68;47.31;95227.25;5035092;28;20178;-84
2023/07/12 08:22:47;;;;;;;17.42;8.52;;;;;;;33.78;45.34;95233.41;5053261;28;20175;-82
2023/07/12 08:25:13;;;;;;;13.18;7.30;;;;;;;33.77;45.79;95216.22;5053129;28;20187;-79
2023/07/12 08:27:39;;;;;;;19.75;9.07;;;;;;;33.70;45.13;95213.25;5053165;28;20175;-79
2023/07/12 08:30:05;;;;;;;10.80;7.50;;;;;;;33.48;44.95;95220.06;5052812;28;20620;-80
2023/07/12 08:32:33;;;;;;;16.42;7.80;;;;;;;33.46;45.14;95218.84;5053002;28;20174;-80
2023/07/12 08:35:00;;;;;;;13.25;7.30;;;;;;;33.42;46.25;95223.38;5034830;28;20179;-78
2023/07/12 08:37:26;;;;;;;10.02;6.82;;;;;;;33.38;45.39;95217.84;5035108;28;20167;-82
2023/07/12 08:39:52;;;;;;;12.90;7.60;;;;;;;33.50;46.57;95206.06;5051624;28;20292;-82
2023/07/12 08:42:25;;;;;;;10.77;6.93;;;;;;;33.78;45.30;95208.81;5052809;28;20270;-82
2023/07/12 08:44:51;;;;;;;15.40;8.70;;;;;;;33.92;45.54;95217.38;5033621;28;20175;-82
2023/07/12 08:47:26;;;;;;;15.43;6.72;;;;;;;34.25;46.71;95226.06;5033176;28;20179;-82
2023/07/12 08:49:51;;;;;;;13.73;7.15;;;;;;;34.27;46.86;95196.44;5051280;28;20233;-80
2023/07/12 08:52:22;;;;;;;13.23;6.72;;;;;;;34.51;47.22;95198.16;5052557;28;20605;-82
2023/07/12 08:54:49;;;;;;;16.25;7.90;;;;;;;34.72;45.63;95206.88;5050176;28;20175;-81
2023/07/12 08:57:23;;;;;;;15.07;8.18;;;;;;;34.89;46.32;95218.63;5052374;28;20207;-83
2023/07/12 09:00:12;;;;;;;13.07;7.28;;;;;;;34.89;46.19;95213.16;5051817;28;20174;-80
2023/07/12 09:02:38;;;;;;;10.82;6.93;;;;;;;34.86;45.27;95200.16;5051324;28;20173;-79
2023/07/12 09:05:19;;;;;;;17.65;7.45;;;;;;;34.91;43.26;95192.50;5054077;28;20258;-81
2023/07/12 09:07:55;;;;;;;12.15;7.03;;;;;;;34.94;45.53;95196.47;5033667;28;20598;-82
2023/07/12 09:10:39;;;;;;;11.80;6.70;;;;;;;35.07;45.20;95195.97;5051381;28;20591;-81
2023/07/12 09:13:06;;;;;;;12.20;7.40;;;;;;;35.10;44.40;95199.94;5049783;28;20250;-80
2023/07/12 09:15:43;;;;;;;16.92;6.85;;;;;;;34.76;44.40;95191.38;5052051;28;20179;-80
2023/07/12 09:18:21;;;;;;;16.17;6.53;;;;;;;34.83;44.75;95181.75;5051458;28;20190;-80
2023/07/12 09:20:50;;;;;;;9.07;6.32;;;;;;;34.79;43.15;95182.44;5050473;28;20265;-80
2023/07/12 09:23:16;;;;;;;9.98;6.22;;;;;;;34.67;42.00;95181.75;5051540;28;20174;-80
2023/07/12 09:25:47;;;;;;;11.07;6.63;;;;;;;34.41;42.76;95179.59;5050957;28;20724;-80
2023/07/12 09:28:13;;;;;;;12.57;6.35;;;;;;;34.17;42.96;95163.31;5048139;28;20167;-80
2023/07/12 09:30:39;;;;;;;12.52;6.43;;;;;;;34.13;43.45;95165.19;5048082;28;20175;-80
2023/07/12 09:33:05;;;;;;;12.70;7.57;;;;;;;33.80;46.99;95171.00;5048428;28;20630;-80
2023/07/12 09:35:40;;;;;;;9.77;5.63;;;;;;;33.80;45.80;95155.41;5050365;28;20634;-80
2023/07/12 09:38:12;;;;;;;11.13;5.82;;;;;;;33.82;43.75;95169.47;5049314;28;20718;-80
2023/07/12 09:40:43;;;;;;;14.15;8.20;;;;;;;33.80;49.05;95169.06;5050875;28;20254;-80
2023/07/12 09:43:19;;;;;;;15.80;6.43;;;;;;;33.92;48.63;95160.78;5050351;28;20721;-80
2023/07/12 09:46:04;;;;;;;12.65;5.80;;;;;;;33.96;47.66;95149.94;5050538;28;20190;-80
2023/07/12 09:48:43;;;;;;;13.50;6.47;;;;;;;33.97;46.58;95140.59;5052247;28;20197;-80
2023/07/12 09:51:23;;;;;;;14.20;5.88;;;;;;;34.00;43.96;95165.28;5029979;28;20167;-82
2023/07/12 09:53:52;;;;;;;10.75;6.05;;;;;;;34.00;47.49;95153.53;5032152;28;20194;-80
2023/07/12 09:56:23;;;;;;;19.95;6.35;;;;;;;34.19;45.55;95167.31;5050854;28;20204;-81
2023/07/12 09:58:55;;;;;;;11.05;5.75;;;;;;;34.28;46.05;95159.75;5049180;28;20178;-81
2023/07/12 10:01:51;;;;;;;9.70;5.68;;;;;;;34.38;45.19;95156.47;5032457;28;20205;-82
2023/07/12 10:04:19;;;;;;;9.48;5.65;;;;;;;34.45;43.16;95148.44;5049235;28;20247;-82
2023/07/12 10:06:48;;;;;;;9.00;6.18;;;;;;;34.35;42.83;95134.50;5046865;28;20187;-82
2023/07/12 10:09:14;;;;;;;14.70;7.43;;;;;;;34.29;43.83;95155.06;5046419;28;20261;-82
2023/07/12 10:12:19;;;;;;;14.52;5.32;;;;;;;33.93;43.58;95131.50;5049134;28;20638;-82
2023/07/12 10:14:46;;;;;;;9.38;5.20;;;;;;;34.08;44.14;95150.63;5043860;28;20190;-81
2023/07/12 10:17:23;;;;;;;9.55;5.35;;;;;;;34.04;43.49;95140.78;5050894;28;20226;-81
2023/07/12 10:19:54;;;;;;;12.52;5.35;;;;;;;34.19;44.54;95139.16;5048737;28;20175;-81
2023/07/12 10:22:26;;;;;;;7.90;5.00;;;;;;;34.26;43.23;95144.81;5032052;28;20185;-81
2023/07/12 10:24:52;;;;;;;20.10;7.28;;;;;;;34.27;43.75;95143.69;5052821;28;20179;-81
2023/07/12 10:27:23;;;;;;;12.23;7.00;;;;;;;34.28;46.07;95142.53;5053823;28;20546;-81
2023/07/12 10:29:57;;;;;;;11.73;6.40;;;;;;;34.31;43.87;95148.09;5052212;28;20182;-81
2023/07/12 10:32:31;;;;;;;10.85;4.57;;;;;;;34.28;43.57;95151.53;5051930;28;20250;-81
2023/07/12 10:35:25;;;;;;;9.18;4.97;;;;;;;34.23;40.98;95137.31;5052554;28;20263;-81
2023/07/12 10:38:18;;;;;;;13.13;5.55;;;;;;;34.04;43.47;95127.09;5026441;28;20201;-81
2023/07/12 10:41:05;;;;;;;8.75;5.18;;;;;;;34.03;44.53;95125.50;5052474;28;20243;-81
2023/07/12 10:43:55;;;;;;;10.05;5.00;;;;;;;34.00;45.17;95115.28;5053062;28;20179;-81
2023/07/12 10:46:32;;;;;;;11.45;5.30;;;;;;;33.86;44.89;95134.84;5051647;28;20203;-82
2023/07/12 10:49:02;;;;;;;7.18;4.85;;;;;;;33.60;41.58;95121.69;5052014;28;20167;-82
2023/07/12 10:51:34;;;;;;;10.93;5.10;;;;;;;33.61;44.70;95127.94;5053723;28;20225;-81
2023/07/12 10:53:59;;;;;;;13.45;5.15;;;;;;;33.62;45.57;95126.78;5032980;28;20171;-81
2023/07/12 10:56:50;;;;;;;13.48;4.93;;;;;;;33.65;47.12;95126.88;5053421;28;20171;-81
2023/07/12 10:59:30;;;;;;;5.88;4.43;;;;;;;33.74;45.50;95117.75;5053569;28;20174;-81
2023/07/12 11:02:18;;;;;;;5.75;3.92;;;;;;;33.81;46.51;95117.94;5053486;28;20662;-81
2023/07/12 11:04:49;;;;;;;6.80;4.15;;;;;;;33.88;43.37;95118.91;5052082;28;20182;-81
2023/07/12 11:07:17;;;;;;;5.45;4.13;;;;;;;33.79;43.68;95117.50;5036207;28;20215;-82
2023/07/12 11:09:45;;;;;;;8.05;4.60;;;;;;;33.76;43.51;95116.25;5054589;28;20616;-82
2023/07/12 11:12:26;;;;;;;6.22;4.47;;;;;;;33.76;43.77;95112.72;5053038;28;20164;-81
2023/07/12 11:14:53;;;;;;;9.63;4.30;;;;;;;33.72;45.19;95104.44;5053954;28;20604;-85
2023/07/12 11:17:25;;;;;;;7.53;4.00;;;;;;;33.56;42.75;95093.47;5052038;28;20171;-90
2023/07/12 11:20:08;;;;;;;5.93;3.90;;;;;;;33.66;43.73;95106.59;5035159;28;20258;-88
2023/07/12 11:22:58;;;;;;;13.95;4.72;;;;;;;33.64;44.14;95105.41;5051565;28;20163;-83
2023/07/12 11:25:50;;;;;;;8.45;4.88;;;;;;;33.51;44.74;95062.91;5053956;28;20192;-87
2023/07/12 11:28:40;;;;;;;5.13;4.18;;;;;;;33.74;44.67;95095.88;5035824;28;20163;-85
2023/07/12 11:31:23;;;;;;;10.55;5.03;;;;;;;33.69;46.12;95086.78;5052859;28;20167;-84